Bosler, Wyoming
Current Conditions -  °F | °C
As of 5:53 AM on Friday 28 Nov 2014 (Local Time) from KLAR Reporting Station
Clear Clear  
Wind Chill: 42°   Ceiling: Unl
Heat Index: 42°   Visibility: 10mi
Dew Point: 13°   Wind: 3mph
Humidity: 31%   Direction: NA
Pressure: 30.02"   Gusts: NA
Location:  41.58°N, 105.7°W
Report Text: KLAR 281253Z AUTO VRB03KT 10SM CLR 06/M11 A3002 RMK AO2 SLP123 T00561106
Loading
Personal Weather Stations






























Interactive Weather Map New forecast layout! Learn more

10-Day Weather Forecast

Advertisements
Track Severe Weather on mobile